Aviation Digital Data Service (ADDS)

Output produced by METARs form (0123 UTC 23 July 2017)
found at http://www.aviationweather.gov/adds/metars/
 
LOWG 230050Z AUTO 15004KT 9999 NCD 17/16 Q1015
TAF LOWG 222315Z 2300/2324 VRB02KT CAVOK TX28/2312Z TN19/2322Z 
     BECMG 2308/2310 34008KT 9999 FEW050 FEW050CB SCT300 
     TEMPO 2312/2324 32015G25KT TSRA BKN040 SCT045CB 
     PROB30 
     TEMPO 2316/2324 2500 +TSRA BKN020 SCT030CB OVC070
       
LOWI 230050Z AUTO 25018G35KT 210V300 9999 -RA VCTS //////CB FEW028 SCT042 BKN060 20/12 Q1017
TAF AMD LOWI 230021Z 2300/2324 VRB02KT 9999 SCT070 SCT110 TX27/2314Z TN16/2303Z 
     TEMPO 2300/2306 27007KT SHRA FEW020 BKN060 FEW060TCU 
     PROB30 
     TEMPO 2300/2302 TSRA 
     BECMG 2308/2310 08008KT SCT070 FEW070TCU 
     TEMPO 2310/2320 27012G25KT TSRA SCT070 FEW070CB
       
LOWK 230050Z AUTO 30004KT 9999 NCD 19/15 Q1016
TAF LOWK 222315Z 2300/2324 VRB02KT CAVOK TX29/2311Z TN19/2324Z 
     BECMG 2305/2307 12005KT 9999 FEW060 
     BECMG 2308/2310 SCT060 FEW060CB 
     TEMPO 2311/2324 VRB10G25KT 5000 TSRA SCT040 FEW050CB BKN080
       
LOWL 230050Z AUTO VRB02KT 9999 BKN110 BKN140 19/16 Q1015
TAF LOWL 222315Z 2300/2324 VRB02KT CAVOK TX24/2313Z TN17/2304Z 
     BECMG 2304/2306 26006KT 9999 SCT050 BKN100 
     TEMPO 2305/2324 30012KT -SHRA SCT035 BKN060 
     PROB30 
     TEMPO 2310/2315 29017KT
       
LOWS 230050Z AUTO 14006KT 9999 FEW120 OVC170 20/16 Q1015
TAF LOWS 222315Z 2300/2324 15007KT 9999 FEW060 SCT120 BKN300 TX22/2312Z TN18/2303Z 
     TEMPO 2300/2306 29010KT SHRA SCT030TCU BKN060 
     PROB30 
     TEMPO 2302/2306 30015KT 4000 TSRA SCT030CB BKN050 
     TEMPO 2306/2324 34007KT -SHRA SCT030CB BKN050 
     PROB30 
     TEMPO 2315/2320 30015KT 4000 TSRA
       
LOWW 230050Z 20007KT 9999 FEW050 FEW060CB BKN150 22/17 Q1014 NOSIG
TAF LOWW 222315Z 2300/2406 20005KT CAVOK TX27/2313Z TN19/2403Z 
     TEMPO 2300/2303 9999 FEW060 FEW060CB SCT140 
     TEMPO 2303/2311 32008KT 8000 SHRA FEW060CB BKN070 
     PROB30 
     TEMPO 2303/2307 6000 TSRA SCT060CB BKN070 
     FM231100 32008KT 9999 FEW060CB BKN300 
     TEMPO 2311/2322 33020G30KT 5000 TSRA SCT060CB BKN070 
     TEMPO 2322/2406 8000 SHRA FEW060CB BKN070
       
LOXZ 222350Z 21003KT 20KM FEW005ST BKN130AC 17/15 Q1018 BKN